createdAt,value
2022-09-04T00:00:08.950Z,1.38
2022-09-04T00:03:18.812Z,1.63
2022-09-04T00:06:17.152Z,1.50
2022-09-04T00:09:16.685Z,1.55
2022-09-04T00:12:11.258Z,1.30
2022-09-04T00:15:05.621Z,1.40
2022-09-04T00:17:57.027Z,1.50
2022-09-04T00:20:57.565Z,1.27
2022-09-04T00:23:50.515Z,1.27
2022-09-04T00:26:50.142Z,1.05
2022-09-04T00:29:52.801Z,1.40
2022-09-04T00:33:07.713Z,1.63
2022-09-04T00:36:01.495Z,1.30
2022-09-04T00:38:55.103Z,1.52
2022-09-04T00:42:16.172Z,1.30
2022-09-04T00:45:28.978Z,1.33
2022-09-04T00:48:56.487Z,1.40
2022-09-04T00:52:21.337Z,1.23
2022-09-04T00:55:50.676Z,1.40
2022-09-04T00:59:16.001Z,1.30
2022-09-04T01:02:25.798Z,1.40
2022-09-04T01:05:40.564Z,1.40
2022-09-04T01:08:40.774Z,1.58
2022-09-04T01:11:32.987Z,1.48
2022-09-04T01:14:53.181Z,1.30
2022-09-04T01:18:11.220Z,1.25
2022-09-04T01:21:23.511Z,1.20
2022-09-04T01:24:42.851Z,1.40
2022-09-04T01:27:42.060Z,2.08
2022-09-04T01:30:37.490Z,1.30
2022-09-04T01:33:35.843Z,1.50
2022-09-04T01:36:41.191Z,1.30
2022-09-04T01:39:30.787Z,1.30
2022-09-04T01:42:26.860Z,1.50
2022-09-04T01:45:20.036Z,1.20
2022-09-04T01:48:10.420Z,1.42
2022-09-04T01:51:04.208Z,1.50
2022-09-04T01:54:16.381Z,1.35
2022-09-04T01:57:20.204Z,1.65
2022-09-04T02:00:15.931Z,1.42
2022-09-04T02:03:26.376Z,1.35
2022-09-04T02:06:33.317Z,1.42
2022-09-04T02:09:45.258Z,1.40
2022-09-04T02:12:51.075Z,1.40
2022-09-04T02:16:02.525Z,1.20
2022-09-04T02:19:22.044Z,1.27
2022-09-04T02:22:41.842Z,1.48
2022-09-04T02:25:34.722Z,1.65
2022-09-04T02:28:47.522Z,1.45
2022-09-04T02:31:49.577Z,1.17
2022-09-04T02:34:51.351Z,1.50
2022-09-04T02:38:04.303Z,1.50
2022-09-04T02:41:06.139Z,1.27
2022-09-04T02:44:32.772Z,1.30
2022-09-04T02:47:24.297Z,1.40
2022-09-04T02:50:41.579Z,1.60
2022-09-04T02:53:36.988Z,1.20
2022-09-04T02:56:59.957Z,1.30
2022-09-04T03:00:08.881Z,1.40
2022-09-04T03:03:05.317Z,1.30
2022-09-04T03:06:09.619Z,1.48
2022-09-04T03:09:05.532Z,1.50
2022-09-04T03:12:29.300Z,1.50
2022-09-04T03:15:36.803Z,1.30
2022-09-04T03:18:30.349Z,1.30
2022-09-04T03:21:26.383Z,1.42
2022-09-04T03:24:35.121Z,1.50
2022-09-04T03:27:22.922Z,1.47
2022-09-04T03:30:12.469Z,1.20
2022-09-04T03:33:27.239Z,1.33
2022-09-04T03:36:25.487Z,1.45
2022-09-04T03:39:39.096Z,1.73
2022-09-04T03:42:34.142Z,1.60
2022-09-04T03:45:42.515Z,1.20
2022-09-04T03:48:53.461Z,1.38
2022-09-04T03:52:08.532Z,1.60
2022-09-04T03:55:13.186Z,1.25
2022-09-04T03:58:18.301Z,1.33
2022-09-04T04:01:25.550Z,1.27
2022-09-04T04:04:52.118Z,1.60
2022-09-04T04:08:00.348Z,1.50
2022-09-04T04:10:57.704Z,1.43
2022-09-04T04:14:15.119Z,1.40
2022-09-04T04:17:43.834Z,1.35
2022-09-04T04:20:51.124Z,1.47
2022-09-04T04:24:29.930Z,1.40
2022-09-04T04:27:36.442Z,1.67
2022-09-04T04:30:23.445Z,1.45
2022-09-04T04:33:56.369Z,1.53
2022-09-04T04:36:55.691Z,1.23
2022-09-04T04:40:14.903Z,1.63
2022-09-04T04:43:38.568Z,1.30
2022-09-04T04:46:47.390Z,1.40
2022-09-04T04:50:06.394Z,1.40
2022-09-04T04:53:05.311Z,1.50
2022-09-04T04:56:31.354Z,1.30
2022-09-04T04:59:34.826Z,1.43
2022-09-04T05:02:28.740Z,1.30
2022-09-04T05:05:54.057Z,1.63
2022-09-04T05:08:44.684Z,1.13
2022-09-04T05:11:53.253Z,1.63
2022-09-04T05:15:05.211Z,1.50
2022-09-04T05:18:13.534Z,1.60
2022-09-04T05:21:27.834Z,1.47
2022-09-04T05:24:32.238Z,1.50
2022-09-04T05:27:46.876Z,1.40
2022-09-04T05:31:13.994Z,1.40
2022-09-04T05:34:10.500Z,1.30
2022-09-04T05:37:40.577Z,1.70
2022-09-04T05:40:48.578Z,1.90
2022-09-04T05:43:51.126Z,1.80
2022-09-04T05:46:51.926Z,1.90
2022-09-04T05:49:46.916Z,1.50
2022-09-04T05:52:47.039Z,1.40
2022-09-04T05:55:52.298Z,1.80
2022-09-04T05:58:58.616Z,1.40
2022-09-04T06:02:04.414Z,1.50
2022-09-04T06:04:51.373Z,1.63
2022-09-04T06:08:09.437Z,1.60
2022-09-04T06:11:21.459Z,1.70
2022-09-04T06:14:19.797Z,1.70
2022-09-04T06:17:22.954Z,1.57
2022-09-04T06:20:34.766Z,1.40
2022-09-04T06:23:39.874Z,1.60
2022-09-04T06:26:38.807Z,1.60
2022-09-04T06:29:59.747Z,1.40
2022-09-04T06:33:12.550Z,1.27
2022-09-04T06:36:21.644Z,1.70
2022-09-04T06:39:31.652Z,1.83
2022-09-04T06:42:21.637Z,1.60
2022-09-04T06:45:36.816Z,1.67
2022-09-04T06:48:46.544Z,1.70
2022-09-04T06:52:12.634Z,1.57
2022-09-04T06:55:09.692Z,1.83
2022-09-04T06:58:15.384Z,1.80
2022-09-04T07:01:08.765Z,1.73
2022-09-04T07:04:11.899Z,1.58
2022-09-04T07:07:31.922Z,1.73
2022-09-04T07:10:26.296Z,1.50
2022-09-04T07:13:37.639Z,1.80
2022-09-04T07:16:57.644Z,1.77
2022-09-04T07:19:54.592Z,1.50
2022-09-04T07:23:05.260Z,1.45
2022-09-04T07:26:18.469Z,1.70
2022-09-04T07:29:33.506Z,1.80
2022-09-04T07:32:34.388Z,1.77
2022-09-04T07:35:40.705Z,1.80
2022-09-04T07:38:32.594Z,2.28
2022-09-04T07:41:46.384Z,2.17
2022-09-04T07:44:40.001Z,2.33
2022-09-04T07:47:34.897Z,2.00
2022-09-04T07:50:35.991Z,2.20
2022-09-04T07:53:51.938Z,2.05
2022-09-04T07:57:07.828Z,2.10
2022-09-04T08:00:07.831Z,2.13
2022-09-04T08:03:26.952Z,2.50
2022-09-04T08:06:29.878Z,2.05
2022-09-04T08:09:35.613Z,2.20
2022-09-04T08:13:00.232Z,2.10
2022-09-04T08:16:02.648Z,2.42
2022-09-04T08:18:53.192Z,2.30
2022-09-04T08:21:42.970Z,2.35
2022-09-04T08:24:50.076Z,2.20
2022-09-04T08:27:57.870Z,2.70
2022-09-04T08:31:03.639Z,2.15
2022-09-04T08:34:14.591Z,2.63
2022-09-04T08:37:23.451Z,2.75
2022-09-04T08:40:41.315Z,2.33
2022-09-04T08:43:49.336Z,2.42
2022-09-04T08:46:56.207Z,2.53
2022-09-04T08:50:10.506Z,2.42
2022-09-04T08:53:44.377Z,2.90
2022-09-04T08:57:02.977Z,2.42
2022-09-04T09:00:05.050Z,2.50
2022-09-04T09:03:10.937Z,2.45
2022-09-04T09:06:18.888Z,2.60
2022-09-04T09:09:31.174Z,2.33
2022-09-04T09:12:45.717Z,2.58
2022-09-04T09:15:59.030Z,2.72
2022-09-04T09:19:08.163Z,2.42
2022-09-04T09:22:37.657Z,2.70
2022-09-04T09:25:30.904Z,2.80
2022-09-04T09:28:48.080Z,2.92
2022-09-04T09:31:47.099Z,2.50
2022-09-04T09:35:11.422Z,2.97
2022-09-04T09:38:20.320Z,2.55
2022-09-04T09:41:23.309Z,2.92
2022-09-04T09:44:44.455Z,2.85
2022-09-04T09:48:09.843Z,3.00
2022-09-04T09:51:28.553Z,2.90
2022-09-04T09:54:49.495Z,2.75
2022-09-04T09:58:01.221Z,2.83
2022-09-04T10:00:52.250Z,2.90
2022-09-04T10:03:39.220Z,3.28
2022-09-04T10:06:44.974Z,3.10
2022-09-04T10:09:53.500Z,2.67
2022-09-04T10:13:05.473Z,2.97
2022-09-04T10:16:08.300Z,2.55
2022-09-04T10:19:07.915Z,2.83
2022-09-04T10:22:16.869Z,2.83
2022-09-04T10:25:28.643Z,2.88
2022-09-04T10:28:22.493Z,2.42
2022-09-04T10:31:37.570Z,3.05
2022-09-04T10:35:03.194Z,2.92
2022-09-04T10:38:03.745Z,2.60
2022-09-04T10:41:10.309Z,3.05
2022-09-04T10:44:24.492Z,3.10
2022-09-04T10:47:25.050Z,2.80
2022-09-04T10:50:41.739Z,2.63
2022-09-04T10:54:07.877Z,2.75
2022-09-04T10:57:42.851Z,3.03
2022-09-04T11:01:13.561Z,2.90
2022-09-04T11:04:18.518Z,2.80
2022-09-04T11:07:18.520Z,2.78
2022-09-04T11:10:17.903Z,2.70
2022-09-04T11:13:33.396Z,3.00
2022-09-04T11:16:26.385Z,3.05
2022-09-04T11:19:34.019Z,2.80
2022-09-04T11:22:45.234Z,3.03
2022-09-04T11:26:05.843Z,2.95
2022-09-04T11:29:27.310Z,2.60
2022-09-04T11:32:40.034Z,2.70
2022-09-04T11:35:39.080Z,2.90
2022-09-04T11:38:48.050Z,3.08
2022-09-04T11:42:02.023Z,3.08
2022-09-04T11:45:11.282Z,3.20
2022-09-04T11:48:32.171Z,2.88
2022-09-04T11:51:50.999Z,2.65
2022-09-04T11:55:14.029Z,2.70
2022-09-04T11:58:18.355Z,2.90
2022-09-04T12:01:26.891Z,2.70
2022-09-04T12:04:39.466Z,3.08
2022-09-04T12:07:44.773Z,3.30
2022-09-04T12:10:43.091Z,3.00
2022-09-04T12:13:52.642Z,2.85
2022-09-04T12:17:17.070Z,3.08
2022-09-04T12:20:15.087Z,3.20
2022-09-04T12:23:28.949Z,3.47
2022-09-04T12:26:51.263Z,2.88
2022-09-04T12:30:10.232Z,2.90
2022-09-04T12:33:25.154Z,3.00
2022-09-04T12:36:42.184Z,2.80
2022-09-04T12:40:08.937Z,2.85
2022-09-04T12:43:09.025Z,2.70
2022-09-04T12:46:12.688Z,3.42
2022-09-04T12:49:02.733Z,2.88
2022-09-04T12:52:03.852Z,3.00
2022-09-04T12:55:09.894Z,2.80
2022-09-04T12:58:21.838Z,3.08
2022-09-04T13:01:16.136Z,3.03
2022-09-04T13:04:22.460Z,3.15
2022-09-04T13:07:51.399Z,2.80
2022-09-04T13:11:00.849Z,2.70
2022-09-04T13:14:28.778Z,2.80
2022-09-04T13:17:32.610Z,3.00
2022-09-04T13:20:40.149Z,2.97
2022-09-04T13:23:57.264Z,2.70
2022-09-04T13:27:15.707Z,2.92
2022-09-04T13:30:18.443Z,2.70
2022-09-04T13:33:40.718Z,3.30
2022-09-04T13:36:35.419Z,3.10
2022-09-04T13:39:54.389Z,3.10
2022-09-04T13:43:15.286Z,3.03
2022-09-04T13:46:17.876Z,3.28
2022-09-04T13:49:29.713Z,3.20
2022-09-04T13:52:50.045Z,3.30
2022-09-04T13:55:51.382Z,3.40
2022-09-04T13:58:51.280Z,3.00
2022-09-04T14:01:49.232Z,3.33
2022-09-04T14:04:45.272Z,3.10
2022-09-04T14:07:41.575Z,3.28
2022-09-04T14:10:59.713Z,3.50
2022-09-04T14:13:58.418Z,2.88
2022-09-04T14:16:49.583Z,3.00
2022-09-04T14:20:02.341Z,3.13
2022-09-04T14:22:49.399Z,3.15
2022-09-04T14:25:59.968Z,3.10
2022-09-04T14:29:05.330Z,3.05
2022-09-04T14:32:13.512Z,3.03
2022-09-04T14:35:30.981Z,3.33
2022-09-04T14:38:49.261Z,2.83
2022-09-04T14:41:54.318Z,3.00
2022-09-04T14:44:57.296Z,2.97
2022-09-04T14:47:54.836Z,3.10
2022-09-04T14:50:49.117Z,3.35
2022-09-04T14:53:36.431Z,3.50
2022-09-04T14:56:50.025Z,3.10
2022-09-04T14:59:41.321Z,3.10
2022-09-04T15:02:34.546Z,2.83
2022-09-04T15:05:30.679Z,3.00
2022-09-04T15:08:38.140Z,3.10
2022-09-04T15:11:35.605Z,2.95
2022-09-04T15:14:36.035Z,3.22
2022-09-04T15:17:28.402Z,2.80
2022-09-04T15:20:22.589Z,3.08
2022-09-04T15:23:29.573Z,2.78
2022-09-04T15:26:36.583Z,3.10
2022-09-04T15:29:39.520Z,2.97
2022-09-04T15:32:30.033Z,3.30
2022-09-04T15:35:33.471Z,3.20
2022-09-04T15:38:25.849Z,3.30
2022-09-04T15:41:24.727Z,3.50
2022-09-04T15:44:30.399Z,3.58
2022-09-04T15:47:46.565Z,3.08
2022-09-04T15:50:40.204Z,3.53
2022-09-04T15:53:34.695Z,3.10
2022-09-04T15:56:23.665Z,3.03
2022-09-04T15:59:22.308Z,3.60
2022-09-04T16:02:36.179Z,3.00
2022-09-04T16:05:41.595Z,2.92
2022-09-04T16:09:01.630Z,3.40
2022-09-04T16:12:26.912Z,3.15
2022-09-04T16:15:20.381Z,3.25
2022-09-04T16:18:22.272Z,3.38
2022-09-04T16:21:32.325Z,2.85
2022-09-04T16:24:31.150Z,3.40
2022-09-04T16:27:23.214Z,3.25
2022-09-04T16:30:26.033Z,3.38
2022-09-04T16:33:35.312Z,3.25
2022-09-04T16:36:28.531Z,2.92
2022-09-04T16:39:32.778Z,3.30
2022-09-04T16:42:30.888Z,3.10
2022-09-04T16:45:41.998Z,3.10
2022-09-04T16:48:57.830Z,3.08
2022-09-04T16:51:50.152Z,2.85
2022-09-04T16:54:48.916Z,2.58
2022-09-04T16:57:54.527Z,2.88
2022-09-04T17:01:14.793Z,2.10
2022-09-04T17:04:35.087Z,2.15
2022-09-04T17:07:34.280Z,2.85
2022-09-04T17:10:39.530Z,2.75
2022-09-04T17:13:48.311Z,2.50
2022-09-04T17:16:49.261Z,3.25
2022-09-04T17:19:36.389Z,2.83
2022-09-04T17:27:05.099Z,3.30
2022-09-04T17:28:57.700Z,2.92
2022-09-04T17:29:34.303Z,3.15
2022-09-04T17:34:54.537Z,2.80
2022-09-04T17:40:33.131Z,3.00
2022-09-04T17:40:36.079Z,2.83
2022-09-04T17:42:24.729Z,2.60
2022-09-04T17:45:22.900Z,2.75
2022-09-04T17:48:19.909Z,2.85
2022-09-04T17:51:08.648Z,2.85
2022-09-04T17:54:03.928Z,2.63
2022-09-04T17:57:04.300Z,2.80
2022-09-04T18:00:20.274Z,3.00
2022-09-04T18:03:22.009Z,2.60
2022-09-04T18:06:16.812Z,2.63
2022-09-04T18:09:14.112Z,2.92
2022-09-04T18:12:24.975Z,3.13
2022-09-04T18:15:33.683Z,2.80
2022-09-04T18:18:28.817Z,3.20
2022-09-04T18:21:26.620Z,3.10
2022-09-04T18:24:16.600Z,3.20
2022-09-04T18:27:17.251Z,2.70
2022-09-04T18:35:30.338Z,2.83
2022-09-04T18:37:16.261Z,2.72
2022-09-04T18:37:45.759Z,2.22
2022-09-04T18:46:12.376Z,3.17
2022-09-04T18:50:24.682Z,2.72
2022-09-04T18:50:32.006Z,2.95
2022-09-04T18:51:19.339Z,2.80
2022-09-04T18:54:22.413Z,2.60
2022-09-04T18:57:32.995Z,3.00
2022-09-04T19:00:41.012Z,2.90
2022-09-04T19:03:48.967Z,3.33
2022-09-04T19:06:45.887Z,2.92
2022-09-04T19:09:55.729Z,2.80
2022-09-04T19:12:53.635Z,3.10
2022-09-04T19:16:01.864Z,3.15
2022-09-04T19:19:11.244Z,3.00
2022-09-04T19:22:28.153Z,3.08
2022-09-04T19:25:27.721Z,2.70
2022-09-04T19:28:38.254Z,2.95
2022-09-04T19:31:41.859Z,3.08
2022-09-04T19:34:42.811Z,2.42
2022-09-04T19:40:53.176Z,2.70
2022-09-04T19:46:05.765Z,2.67
2022-09-04T19:46:09.185Z,3.28
2022-09-04T19:47:59.889Z,2.92
2022-09-04T19:53:35.739Z,2.28
2022-09-04T19:54:10.570Z,2.58
2022-09-04T19:57:33.727Z,2.55
2022-09-04T20:00:33.763Z,2.50
2022-09-04T20:04:08.750Z,2.45
2022-09-04T20:07:02.678Z,2.17
2022-09-04T20:09:57.737Z,2.10
2022-09-04T20:13:16.003Z,2.30
2022-09-04T20:16:28.749Z,1.88
2022-09-04T20:19:28.054Z,1.95
2022-09-04T20:22:27.883Z,2.25
2022-09-04T20:25:17.815Z,2.38
2022-09-04T20:28:08.738Z,2.00
2022-09-04T20:31:28.781Z,2.00
2022-09-04T20:34:28.427Z,2.05
2022-09-04T20:37:39.296Z,1.88
2022-09-04T20:40:43.295Z,1.88
2022-09-04T20:43:38.593Z,2.20
2022-09-04T20:52:45.880Z,1.90
2022-09-04T20:52:56.241Z,2.03
2022-09-04T20:53:31.699Z,2.05
2022-09-04T20:57:50.965Z,1.80
2022-09-04T21:03:14.435Z,2.15
2022-09-04T21:03:34.726Z,1.90
2022-09-04T21:06:42.513Z,1.83
2022-09-04T21:09:56.926Z,1.85
2022-09-04T21:13:14.264Z,2.00
2022-09-04T21:16:11.601Z,2.00
2022-09-04T21:19:29.258Z,1.88
2022-09-04T21:22:33.424Z,2.08
2022-09-04T21:25:33.582Z,2.15
2022-09-04T21:28:40.554Z,2.00
2022-09-04T21:32:05.084Z,1.83
2022-09-04T21:35:31.318Z,2.10
2022-09-04T21:38:48.637Z,1.75
2022-09-04T21:42:16.571Z,2.03
2022-09-04T21:45:24.057Z,1.60
2022-09-04T21:48:23.424Z,1.60
2022-09-04T21:51:38.294Z,1.95
2022-09-04T21:57:19.363Z,1.85
2022-09-04T22:02:42.821Z,1.98
2022-09-04T22:02:44.437Z,1.98
2022-09-04T22:05:40.858Z,1.60
2022-09-04T22:13:29.016Z,1.90
2022-09-04T22:13:42.609Z,1.60
2022-09-04T22:15:17.702Z,1.80
2022-09-04T22:18:41.629Z,1.92
2022-09-04T22:21:46.797Z,1.60
2022-09-04T22:24:53.155Z,1.90
2022-09-04T22:28:08.756Z,1.88
2022-09-04T22:31:18.327Z,1.92
2022-09-04T22:34:30.300Z,1.60
2022-09-04T22:37:58.527Z,1.90
2022-09-04T22:40:56.321Z,1.80
2022-09-04T22:44:02.535Z,1.63
2022-09-04T22:47:26.336Z,1.85
2022-09-04T22:50:49.285Z,1.90
2022-09-04T22:53:37.415Z,2.00
2022-09-04T22:56:56.478Z,1.98
2022-09-04T22:59:54.069Z,2.00
2022-09-04T23:03:08.903Z,1.80
2022-09-04T23:07:44.323Z,1.80
2022-09-04T23:13:44.792Z,1.98
2022-09-04T23:14:02.131Z,1.80
2022-09-04T23:16:27.882Z,2.10
2022-09-04T23:24:47.881Z,1.83
2022-09-04T23:26:46.249Z,1.80
2022-09-04T23:27:01.836Z,1.70
2022-09-04T23:29:55.816Z,1.98
2022-09-04T23:33:27.925Z,1.80
2022-09-04T23:36:38.896Z,2.30
2022-09-04T23:39:55.488Z,1.90
2022-09-04T23:43:20.238Z,2.20
2022-09-04T23:46:26.294Z,1.95
2022-09-04T23:49:41.454Z,2.05
2022-09-04T23:53:00.008Z,2.08
2022-09-04T23:56:05.762Z,2.17
2022-09-04T23:59:23.438Z,2.10
